sensor_id;sensor_type;location;lat;lon;timestamp;P1;durP1;ratioP1;P2;durP2;ratioP2
40537;SDS011;27925;41.874;12.526;2023-03-23T01:35:37;26.05;;;20.52;;
40537;SDS011;27925;41.874;12.526;2023-03-23T01:38:03;31.30;;;20.50;;
40537;SDS011;27925;41.874;12.526;2023-03-23T01:40:28;31.30;;;20.45;;
40537;SDS011;27925;41.874;12.526;2023-03-23T01:42:54;27.70;;;19.90;;
40537;SDS011;27925;41.874;12.526;2023-03-23T01:47:52;25.58;;;20.05;;
40537;SDS011;27925;41.874;12.526;2023-03-23T01:50:28;25.45;;;19.10;;
40537;SDS011;27925;41.874;12.526;2023-03-23T01:53:00;26.52;;;19.85;;
40537;SDS011;27925;41.874;12.526;2023-03-23T01:55:29;28.92;;;19.70;;
40537;SDS011;27925;41.874;12.526;2023-03-23T01:57:56;24.27;;;19.77;;
40537;SDS011;27925;41.874;12.526;2023-03-23T02:00:22;26.67;;;19.63;;
40537;SDS011;27925;41.874;12.526;2023-03-23T02:02:49;27.63;;;19.52;;
40537;SDS011;27925;41.874;12.526;2023-03-23T02:08:18;24.55;;;18.85;;
40537;SDS011;27925;41.874;12.526;2023-03-23T02:10:44;24.63;;;18.77;;
40537;SDS011;27925;41.874;12.526;2023-03-23T02:13:10;22.27;;;18.30;;
40537;SDS011;27925;41.874;12.526;2023-03-23T02:15:55;23.02;;;18.60;;
40537;SDS011;27925;41.874;12.526;2023-03-23T02:24:16;21.95;;;17.40;;
40537;SDS011;27925;41.874;12.526;2023-03-23T02:31:59;25.00;;;17.35;;
40537;SDS011;27925;41.874;12.526;2023-03-23T02:37:19;24.10;;;18.00;;
40537;SDS011;27925;41.874;12.526;2023-03-23T02:39:51;22.98;;;17.80;;
40537;SDS011;27925;41.874;12.526;2023-03-23T02:42:23;20.77;;;17.45;;
40537;SDS011;27925;41.874;12.526;2023-03-23T02:44:56;21.90;;;17.65;;
40537;SDS011;27925;41.874;12.526;2023-03-23T02:47:28;23.08;;;17.85;;
40537;SDS011;27925;41.874;12.526;2023-03-23T02:49:55;23.58;;;17.65;;
40537;SDS011;27925;41.874;12.526;2023-03-23T02:52:27;25.40;;;18.13;;
40537;SDS011;27925;41.874;12.526;2023-03-23T02:54:56;24.45;;;18.02;;
40537;SDS011;27925;41.874;12.526;2023-03-23T02:57:24;23.65;;;18.23;;
40537;SDS011;27925;41.874;12.526;2023-03-23T02:59:52;24.85;;;18.30;;
40537;SDS011;27925;41.874;12.526;2023-03-23T03:02:19;25.17;;;18.98;;
40537;SDS011;27925;41.874;12.526;2023-03-23T03:05:33;28.50;;;19.05;;
40537;SDS011;27925;41.874;12.526;2023-03-23T03:10:42;39.28;;;19.67;;
40537;SDS011;27925;41.874;12.526;2023-03-23T03:21:21;29.33;;;19.20;;
40537;SDS011;27925;41.874;12.526;2023-03-23T03:23:52;26.35;;;20.63;;
40537;SDS011;27925;41.874;12.526;2023-03-23T03:26:21;30.90;;;21.92;;
40537;SDS011;27925;41.874;12.526;2023-03-23T03:28:51;32.80;;;23.40;;
40537;SDS011;27925;41.874;12.526;2023-03-23T03:31:19;31.60;;;22.77;;
40537;SDS011;27925;41.874;12.526;2023-03-23T03:33:52;32.67;;;23.45;;
40537;SDS011;27925;41.874;12.526;2023-03-23T03:36:23;30.77;;;24.65;;
40537;SDS011;27925;41.874;12.526;2023-03-23T03:39:00;32.47;;;27.35;;
40537;SDS011;27925;41.874;12.526;2023-03-23T03:41:30;36.85;;;26.65;;
40537;SDS011;27925;41.874;12.526;2023-03-23T03:43:56;31.52;;;26.70;;
40537;SDS011;27925;41.874;12.526;2023-03-23T03:46:21;33.65;;;27.20;;
40537;SDS011;27925;41.874;12.526;2023-03-23T03:48:51;30.40;;;26.48;;
40537;SDS011;27925;41.874;12.526;2023-03-23T03:51:17;35.38;;;27.75;;
40537;SDS011;27925;41.874;12.526;2023-03-23T03:53:43;33.85;;;27.77;;
40537;SDS011;27925;41.874;12.526;2023-03-23T03:56:09;32.00;;;26.02;;
40537;SDS011;27925;41.874;12.526;2023-03-23T03:58:35;33.08;;;26.52;;
40537;SDS011;27925;41.874;12.526;2023-03-23T04:01:01;37.92;;;28.10;;
40537;SDS011;27925;41.874;12.526;2023-03-23T04:03:28;33.28;;;27.15;;
40537;SDS011;27925;41.874;12.526;2023-03-23T04:05:54;37.20;;;29.40;;
40537;SDS011;27925;41.874;12.526;2023-03-23T04:08:21;39.00;;;28.25;;
40537;SDS011;27925;41.874;12.526;2023-03-23T04:10:47;38.40;;;29.80;;
40537;SDS011;27925;41.874;12.526;2023-03-23T04:13:14;40.25;;;29.35;;
40537;SDS011;27925;41.874;12.526;2023-03-23T04:15:40;36.63;;;30.05;;
40537;SDS011;27925;41.874;12.526;2023-03-23T04:18:06;35.38;;;29.10;;
40537;SDS011;27925;41.874;12.526;2023-03-23T04:20:32;36.58;;;30.70;;
40537;SDS011;27925;41.874;12.526;2023-03-23T04:23:00;36.70;;;29.35;;
40537;SDS011;27925;41.874;12.526;2023-03-23T04:25:26;35.80;;;30.13;;
40537;SDS011;27925;41.874;12.526;2023-03-23T04:27:52;36.47;;;28.83;;
40537;SDS011;27925;41.874;12.526;2023-03-23T04:30:22;41.35;;;29.55;;
40537;SDS011;27925;41.874;12.526;2023-03-23T04:32:50;36.70;;;28.50;;
40537;SDS011;27925;41.874;12.526;2023-03-23T04:35:18;33.53;;;29.17;;
40537;SDS011;27925;41.874;12.526;2023-03-23T04:37:45;35.47;;;27.67;;
40537;SDS011;27925;41.874;12.526;2023-03-23T04:40:11;35.30;;;26.95;;
40537;SDS011;27925;41.874;12.526;2023-03-23T04:42:40;32.47;;;26.33;;
40537;SDS011;27925;41.874;12.526;2023-03-23T04:45:10;30.90;;;25.70;;
40537;SDS011;27925;41.874;12.526;2023-03-23T04:47:39;29.35;;;23.40;;
40537;SDS011;27925;41.874;12.526;2023-03-23T04:50:07;30.15;;;22.90;;
40537;SDS011;27925;41.874;12.526;2023-03-23T04:52:34;32.45;;;24.30;;
40537;SDS011;27925;41.874;12.526;2023-03-23T04:55:02;29.55;;;22.27;;
40537;SDS011;27925;41.874;12.526;2023-03-23T04:57:32;28.20;;;23.13;;
40537;SDS011;27925;41.874;12.526;2023-03-23T05:00:00;33.38;;;23.08;;
40537;SDS011;27925;41.874;12.526;2023-03-23T05:05:00;26.90;;;21.30;;
40537;SDS011;27925;41.874;12.526;2023-03-23T05:07:26;33.03;;;21.80;;
40537;SDS011;27925;41.874;12.526;2023-03-23T05:09:52;29.50;;;20.98;;
40537;SDS011;27925;41.874;12.526;2023-03-23T05:12:17;27.88;;;20.67;;
40537;SDS011;27925;41.874;12.526;2023-03-23T05:14:43;28.23;;;20.95;;
40537;SDS011;27925;41.874;12.526;2023-03-23T05:17:09;23.25;;;20.00;;
40537;SDS011;27925;41.874;12.526;2023-03-23T05:19:35;25.35;;;20.48;;
40537;SDS011;27925;41.874;12.526;2023-03-23T05:22:01;30.08;;;20.08;;
40537;SDS011;27925;41.874;12.526;2023-03-23T05:24:28;27.67;;;21.00;;
40537;SDS011;27925;41.874;12.526;2023-03-23T05:26:56;28.35;;;21.92;;
40537;SDS011;27925;41.874;12.526;2023-03-23T05:29:22;29.33;;;21.30;;
40537;SDS011;27925;41.874;12.526;2023-03-23T05:31:49;27.42;;;22.42;;
40537;SDS011;27925;41.874;12.526;2023-03-23T05:34:14;26.67;;;20.67;;
40537;SDS011;27925;41.874;12.526;2023-03-23T05:36:41;28.00;;;20.65;;
40537;SDS011;27925;41.874;12.526;2023-03-23T05:39:08;28.10;;;22.52;;
40537;SDS011;27925;41.874;12.526;2023-03-23T05:41:35;37.08;;;21.35;;
40537;SDS011;27925;41.874;12.526;2023-03-23T05:44:02;27.15;;;21.83;;
40537;SDS011;27925;41.874;12.526;2023-03-23T05:46:28;30.05;;;21.30;;
40537;SDS011;27925;41.874;12.526;2023-03-23T05:48:54;28.38;;;20.73;;
40537;SDS011;27925;41.874;12.526;2023-03-23T05:51:20;27.92;;;20.98;;
40537;SDS011;27925;41.874;12.526;2023-03-23T05:53:46;24.98;;;20.13;;
40537;SDS011;27925;41.874;12.526;2023-03-23T05:56:13;26.38;;;19.67;;
40537;SDS011;27925;41.874;12.526;2023-03-23T05:58:39;29.13;;;20.65;;
40537;SDS011;27925;41.874;12.526;2023-03-23T06:01:06;22.25;;;18.35;;
40537;SDS011;27925;41.874;12.526;2023-03-23T06:03:32;22.58;;;17.75;;
40537;SDS011;27925;41.874;12.526;2023-03-23T06:05:57;26.13;;;18.60;;
40537;SDS011;27925;41.874;12.526;2023-03-23T06:08:23;21.25;;;17.05;;
40537;SDS011;27925;41.874;12.526;2023-03-23T06:10:49;24.63;;;18.65;;
40537;SDS011;27925;41.874;12.526;2023-03-23T06:13:15;21.20;;;17.40;;
40537;SDS011;27925;41.874;12.526;2023-03-23T06:15:41;23.08;;;17.63;;
40537;SDS011;27925;41.874;12.526;2023-03-23T06:18:07;24.48;;;17.80;;
40537;SDS011;27925;41.874;12.526;2023-03-23T06:20:33;23.42;;;17.17;;
40537;SDS011;27925;41.874;12.526;2023-03-23T06:23:00;24.85;;;18.45;;
40537;SDS011;27925;41.874;12.526;2023-03-23T06:25:28;24.60;;;17.17;;
40537;SDS011;27925;41.874;12.526;2023-03-23T06:27:54;20.40;;;16.77;;
40537;SDS011;27925;41.874;12.526;2023-03-23T06:30:20;18.67;;;16.20;;
40537;SDS011;27925;41.874;12.526;2023-03-23T06:32:46;21.67;;;16.77;;
40537;SDS011;27925;41.874;12.526;2023-03-23T06:35:12;23.83;;;15.98;;
40537;SDS011;27925;41.874;12.526;2023-03-23T06:37:40;23.35;;;16.60;;
40537;SDS011;27925;41.874;12.526;2023-03-23T06:40:06;18.88;;;16.05;;
40537;SDS011;27925;41.874;12.526;2023-03-23T06:42:33;24.52;;;16.30;;
40537;SDS011;27925;41.874;12.526;2023-03-23T06:44:59;22.05;;;15.82;;
40537;SDS011;27925;41.874;12.526;2023-03-23T06:47:26;24.55;;;15.68;;
40537;SDS011;27925;41.874;12.526;2023-03-23T06:49:54;20.60;;;15.43;;
40537;SDS011;27925;41.874;12.526;2023-03-23T06:52:21;17.98;;;15.13;;
40537;SDS011;27925;41.874;12.526;2023-03-23T06:54:48;19.42;;;14.73;;
40537;SDS011;27925;41.874;12.526;2023-03-23T06:57:14;18.73;;;14.15;;
40537;SDS011;27925;41.874;12.526;2023-03-23T06:59:40;19.27;;;15.43;;
40537;SDS011;27925;41.874;12.526;2023-03-23T07:02:08;22.38;;;14.85;;
40537;SDS011;27925;41.874;12.526;2023-03-23T07:04:39;24.48;;;17.48;;
40537;SDS011;27925;41.874;12.526;2023-03-23T07:07:07;18.92;;;14.70;;
40537;SDS011;27925;41.874;12.526;2023-03-23T07:09:35;19.35;;;14.43;;
40537;SDS011;27925;41.874;12.526;2023-03-23T07:12:01;20.92;;;14.40;;
40537;SDS011;27925;41.874;12.526;2023-03-23T07:14:27;17.20;;;13.93;;
40537;SDS011;27925;41.874;12.526;2023-03-23T07:16:54;22.80;;;14.48;;
40537;SDS011;27925;41.874;12.526;2023-03-23T07:19:19;20.40;;;13.88;;
40537;SDS011;27925;41.874;12.526;2023-03-23T07:21:45;18.45;;;13.25;;
40537;SDS011;27925;41.874;12.526;2023-03-23T07:24:12;18.75;;;13.77;;
40537;SDS011;27925;41.874;12.526;2023-03-23T07:26:41;17.70;;;13.10;;
40537;SDS011;27925;41.874;12.526;2023-03-23T07:29:07;17.65;;;12.15;;
40537;SDS011;27925;41.874;12.526;2023-03-23T07:31:33;16.58;;;12.35;;
40537;SDS011;27925;41.874;12.526;2023-03-23T07:33:59;17.30;;;11.80;;
40537;SDS011;27925;41.874;12.526;2023-03-23T07:36:25;18.52;;;12.30;;
40537;SDS011;27925;41.874;12.526;2023-03-23T07:38:51;15.20;;;12.15;;
40537;SDS011;27925;41.874;12.526;2023-03-23T07:41:17;16.70;;;12.13;;
40537;SDS011;27925;41.874;12.526;2023-03-23T07:43:44;15.48;;;11.85;;
40537;SDS011;27925;41.874;12.526;2023-03-23T07:46:10;16.85;;;11.70;;
40537;SDS011;27925;41.874;12.526;2023-03-23T07:48:36;16.35;;;11.50;;
40537;SDS011;27925;41.874;12.526;2023-03-23T07:51:02;15.25;;;11.57;;
40537;SDS011;27925;41.874;12.526;2023-03-23T07:53:28;17.38;;;10.68;;
40537;SDS011;27925;41.874;12.526;2023-03-23T07:55:54;13.20;;;10.65;;
40537;SDS011;27925;41.874;12.526;2023-03-23T07:58:20;14.90;;;11.10;;
40537;SDS011;27925;41.874;12.526;2023-03-23T08:00:46;15.07;;;11.80;;
40537;SDS011;27925;41.874;12.526;2023-03-23T08:03:14;16.33;;;11.48;;
40537;SDS011;27925;41.874;12.526;2023-03-23T08:05:40;15.55;;;10.68;;
40537;SDS011;27925;41.874;12.526;2023-03-23T08:08:07;16.80;;;10.52;;
40537;SDS011;27925;41.874;12.526;2023-03-23T08:10:34;13.98;;;10.18;;
40537;SDS011;27925;41.874;12.526;2023-03-23T08:13:01;13.50;;;9.82;;
40537;SDS011;27925;41.874;12.526;2023-03-23T08:15:27;17.08;;;11.20;;
40537;SDS011;27925;41.874;12.526;2023-03-23T08:17:54;16.50;;;11.65;;
40537;SDS011;27925;41.874;12.526;2023-03-23T08:20:20;16.92;;;12.55;;
40537;SDS011;27925;41.874;12.526;2023-03-23T08:22:54;19.83;;;13.02;;
40537;SDS011;27925;41.874;12.526;2023-03-23T08:25:22;19.55;;;12.63;;
40537;SDS011;27925;41.874;12.526;2023-03-23T08:27:49;21.67;;;11.63;;
40537;SDS011;27925;41.874;12.526;2023-03-23T08:30:16;20.20;;;13.05;;
40537;SDS011;27925;41.874;12.526;2023-03-23T08:32:47;23.92;;;13.38;;
40537;SDS011;27925;41.874;12.526;2023-03-23T08:35:14;18.40;;;12.60;;
40537;SDS011;27925;41.874;12.526;2023-03-23T08:37:41;18.08;;;12.70;;
40537;SDS011;27925;41.874;12.526;2023-03-23T08:40:07;16.83;;;12.02;;
40537;SDS011;27925;41.874;12.526;2023-03-23T08:42:35;14.60;;;11.45;;
40537;SDS011;27925;41.874;12.526;2023-03-23T08:45:03;18.80;;;13.02;;
40537;SDS011;27925;41.874;12.526;2023-03-23T08:47:34;22.52;;;12.18;;
40537;SDS011;27925;41.874;12.526;2023-03-23T08:50:00;17.20;;;11.30;;
40537;SDS011;27925;41.874;12.526;2023-03-23T08:52:27;14.65;;;10.45;;
40537;SDS011;27925;41.874;12.526;2023-03-23T08:54:53;25.25;;;12.18;;
40537;SDS011;27925;41.874;12.526;2023-03-23T08:57:19;18.73;;;11.77;;
40537;SDS011;27925;41.874;12.526;2023-03-23T08:59:45;18.20;;;11.20;;
40537;SDS011;27925;41.874;12.526;2023-03-23T09:02:11;16.05;;;11.15;;
40537;SDS011;27925;41.874;12.526;2023-03-23T09:04:40;13.40;;;9.25;;
40537;SDS011;27925;41.874;12.526;2023-03-23T09:07:09;17.35;;;8.90;;
40537;SDS011;27925;41.874;12.526;2023-03-23T09:09:37;17.55;;;8.32;;
40537;SDS011;27925;41.874;12.526;2023-03-23T09:12:05;14.18;;;9.20;;
40537;SDS011;27925;41.874;12.526;2023-03-23T09:14:32;14.70;;;8.60;;
40537;SDS011;27925;41.874;12.526;2023-03-23T09:16:58;25.92;;;12.52;;
40537;SDS011;27925;41.874;12.526;2023-03-23T09:19:23;19.65;;;10.55;;
40537;SDS011;27925;41.874;12.526;2023-03-23T09:21:49;13.32;;;10.35;;
40537;SDS011;27925;41.874;12.526;2023-03-23T09:24:16;15.65;;;9.00;;
40537;SDS011;27925;41.874;12.526;2023-03-23T09:26:41;15.32;;;9.88;;
40537;SDS011;27925;41.874;12.526;2023-03-23T09:29:07;15.23;;;10.88;;
40537;SDS011;27925;41.874;12.526;2023-03-23T09:31:33;15.98;;;11.77;;
40537;SDS011;27925;41.874;12.526;2023-03-23T09:34:01;17.63;;;13.00;;
40537;SDS011;27925;41.874;12.526;2023-03-23T09:36:29;19.05;;;13.05;;
40537;SDS011;27925;41.874;12.526;2023-03-23T09:38:55;17.17;;;12.95;;
40537;SDS011;27925;41.874;12.526;2023-03-23T09:52:34;17.42;;;11.23;;
40537;SDS011;27925;41.874;12.526;2023-03-23T09:55:11;17.80;;;10.98;;
40537;SDS011;27925;41.874;12.526;2023-03-23T09:57:43;15.05;;;9.30;;
40537;SDS011;27925;41.874;12.526;2023-03-23T10:00:32;14.63;;;9.07;;
40537;SDS011;27925;41.874;12.526;2023-03-23T10:05:51;14.35;;;7.97;;
40537;SDS011;27925;41.874;12.526;2023-03-23T10:08:25;16.08;;;6.63;;
40537;SDS011;27925;41.874;12.526;2023-03-23T10:16:13;11.98;;;5.32;;
40537;SDS011;27925;41.874;12.526;2023-03-23T10:18:49;7.40;;;5.00;;
40537;SDS011;27925;41.874;12.526;2023-03-23T10:21:22;8.85;;;4.85;;
40537;SDS011;27925;41.874;12.526;2023-03-23T10:28:56;13.45;;;5.38;;
40537;SDS011;27925;41.874;12.526;2023-03-23T10:31:31;13.85;;;5.65;;
40537;SDS011;27925;41.874;12.526;2023-03-23T10:34:11;14.13;;;5.80;;
40537;SDS011;27925;41.874;12.526;2023-03-23T10:42:26;11.80;;;6.45;;
40537;SDS011;27925;41.874;12.526;2023-03-23T10:45:01;11.55;;;6.70;;
40537;SDS011;27925;41.874;12.526;2023-03-23T10:47:41;9.97;;;7.53;;
40537;SDS011;27925;41.874;12.526;2023-03-23T10:50:15;11.07;;;5.78;;
40537;SDS011;27925;41.874;12.526;2023-03-23T10:52:46;9.90;;;6.40;;
40537;SDS011;27925;41.874;12.526;2023-03-23T10:55:18;11.48;;;5.70;;
40537;SDS011;27925;41.874;12.526;2023-03-23T10:57:58;8.85;;;5.45;;
40537;SDS011;27925;41.874;12.526;2023-03-23T11:00:28;9.27;;;5.10;;
40537;SDS011;27925;41.874;12.526;2023-03-23T11:03:05;10.02;;;5.72;;
40537;SDS011;27925;41.874;12.526;2023-03-23T11:05:57;10.05;;;6.22;;
40537;SDS011;27925;41.874;12.526;2023-03-23T11:08:30;9.60;;;5.88;;
40537;SDS011;27925;41.874;12.526;2023-03-23T11:11:08;9.23;;;6.07;;
40537;SDS011;27925;41.874;12.526;2023-03-23T11:13:47;14.02;;;6.78;;
40537;SDS011;27925;41.874;12.526;2023-03-23T11:16:26;10.57;;;6.03;;
40537;SDS011;27925;41.874;12.526;2023-03-23T11:18:57;12.75;;;6.13;;
40537;SDS011;27925;41.874;12.526;2023-03-23T11:21:24;11.90;;;6.00;;
40537;SDS011;27925;41.874;12.526;2023-03-23T11:23:55;11.48;;;5.45;;
40537;SDS011;27925;41.874;12.526;2023-03-23T11:26:25;10.23;;;5.70;;
40537;SDS011;27925;41.874;12.526;2023-03-23T11:28:55;7.95;;;5.80;;
40537;SDS011;27925;41.874;12.526;2023-03-23T11:31:41;9.05;;;5.68;;
40537;SDS011;27925;41.874;12.526;2023-03-23T11:34:23;9.37;;;5.23;;
40537;SDS011;27925;41.874;12.526;2023-03-23T11:36:53;12.07;;;5.78;;
40537;SDS011;27925;41.874;12.526;2023-03-23T11:39:25;11.43;;;5.13;;
40537;SDS011;27925;41.874;12.526;2023-03-23T11:41:53;14.80;;;5.57;;
40537;SDS011;27925;41.874;12.526;2023-03-23T11:44:22;13.40;;;5.82;;
40537;SDS011;27925;41.874;12.526;2023-03-23T11:52:59;13.20;;;5.72;;
40537;SDS011;27925;41.874;12.526;2023-03-23T11:58:12;11.10;;;5.80;;
40537;SDS011;27925;41.874;12.526;2023-03-23T12:03:20;8.07;;;4.70;;
40537;SDS011;27925;41.874;12.526;2023-03-23T12:08:29;9.40;;;4.65;;
40537;SDS011;27925;41.874;12.526;2023-03-23T12:22:45;8.05;;;3.53;;
40537;SDS011;27925;41.874;12.526;2023-03-23T12:28:03;13.05;;;4.57;;
40537;SDS011;27925;41.874;12.526;2023-03-23T12:30:56;6.90;;;3.20;;
40537;SDS011;27925;41.874;12.526;2023-03-23T12:39:03;7.07;;;2.85;;
40537;SDS011;27925;41.874;12.526;2023-03-23T12:41:43;6.25;;;2.35;;
40537;SDS011;27925;41.874;12.526;2023-03-23T12:44:18;5.32;;;2.10;;
40537;SDS011;27925;41.874;12.526;2023-03-23T12:49:34;6.95;;;2.58;;
40537;SDS011;27925;41.874;12.526;2023-03-23T12:57:44;5.75;;;2.17;;
40537;SDS011;27925;41.874;12.526;2023-03-23T13:00:14;11.13;;;2.72;;
40537;SDS011;27925;41.874;12.526;2023-03-23T13:05:36;6.32;;;2.65;;
40537;SDS011;27925;41.874;12.526;2023-03-23T13:08:14;6.57;;;2.10;;
40537;SDS011;27925;41.874;12.526;2023-03-23T13:10:46;5.15;;;2.20;;
40537;SDS011;27925;41.874;12.526;2023-03-23T13:13:18;6.75;;;2.42;;
40537;SDS011;27925;41.874;12.526;2023-03-23T13:20:57;6.13;;;2.53;;
40537;SDS011;27925;41.874;12.526;2023-03-23T13:23:26;7.20;;;2.88;;
40537;SDS011;27925;41.874;12.526;2023-03-23T13:26:03;9.07;;;3.20;;
40537;SDS011;27925;41.874;12.526;2023-03-23T13:28:50;10.10;;;2.90;;
40537;SDS011;27925;41.874;12.526;2023-03-23T13:36:38;5.30;;;2.42;;
40537;SDS011;27925;41.874;12.526;2023-03-23T13:39:06;7.55;;;2.88;;
40537;SDS011;27925;41.874;12.526;2023-03-23T13:50:10;9.50;;;2.58;;
40537;SDS011;27925;41.874;12.526;2023-03-23T13:58:09;5.75;;;2.50;;
40537;SDS011;27925;41.874;12.526;2023-03-23T14:00:45;6.50;;;2.30;;
40537;SDS011;27925;41.874;12.526;2023-03-23T14:10:59;7.72;;;2.40;;
40537;SDS011;27925;41.874;12.526;2023-03-23T14:13:40;6.07;;;1.83;;
40537;SDS011;27925;41.874;12.526;2023-03-23T14:21:41;4.10;;;1.55;;
40537;SDS011;27925;41.874;12.526;2023-03-23T14:24:21;4.18;;;1.73;;
40537;SDS011;27925;41.874;12.526;2023-03-23T14:26:51;6.45;;;1.70;;
40537;SDS011;27925;41.874;12.526;2023-03-23T14:29:19;7.05;;;1.33;;
40537;SDS011;27925;41.874;12.526;2023-03-23T14:31:52;6.03;;;1.75;;
40537;SDS011;27925;41.874;12.526;2023-03-23T14:34:23;6.65;;;1.73;;
40537;SDS011;27925;41.874;12.526;2023-03-23T14:36:51;4.97;;;1.52;;
40537;SDS011;27925;41.874;12.526;2023-03-23T14:39:23;11.52;;;2.40;;
40537;SDS011;27925;41.874;12.526;2023-03-23T14:41:56;8.60;;;2.00;;
40537;SDS011;27925;41.874;12.526;2023-03-23T14:44:39;16.70;;;2.83;;
40537;SDS011;27925;41.874;12.526;2023-03-23T14:47:11;6.35;;;1.90;;
40537;SDS011;27925;41.874;12.526;2023-03-23T14:49:44;5.00;;;2.05;;
40537;SDS011;27925;41.874;12.526;2023-03-23T14:52:12;4.82;;;1.90;;
40537;SDS011;27925;41.874;12.526;2023-03-23T14:54:42;5.15;;;1.75;;
40537;SDS011;27925;41.874;12.526;2023-03-23T14:57:16;6.70;;;1.85;;
40537;SDS011;27925;41.874;12.526;2023-03-23T14:59:51;4.95;;;1.80;;
40537;SDS011;27925;41.874;12.526;2023-03-23T15:02:20;5.40;;;2.22;;
40537;SDS011;27925;41.874;12.526;2023-03-23T15:05:09;6.32;;;2.05;;
40537;SDS011;27925;41.874;12.526;2023-03-23T15:07:40;9.70;;;2.10;;
40537;SDS011;27925;41.874;12.526;2023-03-23T15:10:08;6.28;;;2.10;;
40537;SDS011;27925;41.874;12.526;2023-03-23T15:12:39;8.82;;;1.90;;
40537;SDS011;27925;41.874;12.526;2023-03-23T15:15:05;3.65;;;1.67;;
40537;SDS011;27925;41.874;12.526;2023-03-23T15:17:41;5.53;;;1.80;;
40537;SDS011;27925;41.874;12.526;2023-03-23T15:20:22;4.15;;;1.80;;
40537;SDS011;27925;41.874;12.526;2023-03-23T15:23:21;7.10;;;2.10;;
40537;SDS011;27925;41.874;12.526;2023-03-23T15:25:51;4.07;;;1.70;;
40537;SDS011;27925;41.874;12.526;2023-03-23T15:28:20;4.32;;;1.83;;
40537;SDS011;27925;41.874;12.526;2023-03-23T15:30:57;3.60;;;1.52;;
40537;SDS011;27925;41.874;12.526;2023-03-23T15:33:27;4.18;;;1.80;;
40537;SDS011;27925;41.874;12.526;2023-03-23T15:36:04;6.72;;;2.00;;
40537;SDS011;27925;41.874;12.526;2023-03-23T15:38:33;8.63;;;2.05;;
40537;SDS011;27925;41.874;12.526;2023-03-23T15:41:02;7.85;;;1.67;;
40537;SDS011;27925;41.874;12.526;2023-03-23T15:43:57;4.63;;;1.40;;
40537;SDS011;27925;41.874;12.526;2023-03-23T15:46:25;7.25;;;1.70;;
40537;SDS011;27925;41.874;12.526;2023-03-23T15:48:53;9.13;;;1.77;;
40537;SDS011;27925;41.874;12.526;2023-03-23T15:51:23;5.90;;;1.90;;
40537;SDS011;27925;41.874;12.526;2023-03-23T15:53:52;4.15;;;1.63;;
40537;SDS011;27925;41.874;12.526;2023-03-23T15:56:18;6.43;;;2.42;;
40537;SDS011;27925;41.874;12.526;2023-03-23T15:58:45;5.32;;;2.13;;
40537;SDS011;27925;41.874;12.526;2023-03-23T16:01:15;4.68;;;2.28;;
40537;SDS011;27925;41.874;12.526;2023-03-23T16:03:47;5.55;;;2.22;;
40537;SDS011;27925;41.874;12.526;2023-03-23T16:06:25;7.53;;;2.30;;
40537;SDS011;27925;41.874;12.526;2023-03-23T16:08:53;7.57;;;3.38;;
40537;SDS011;27925;41.874;12.526;2023-03-23T16:11:19;7.72;;;2.70;;
40537;SDS011;27925;41.874;12.526;2023-03-23T16:13:45;7.60;;;1.90;;
40537;SDS011;27925;41.874;12.526;2023-03-23T16:16:13;5.93;;;2.10;;
40537;SDS011;27925;41.874;12.526;2023-03-23T16:18:41;4.53;;;1.60;;
40537;SDS011;27925;41.874;12.526;2023-03-23T16:21:07;6.80;;;1.88;;
40537;SDS011;27925;41.874;12.526;2023-03-23T16:23:33;5.18;;;1.70;;
40537;SDS011;27925;41.874;12.526;2023-03-23T16:25:59;5.40;;;1.95;;
40537;SDS011;27925;41.874;12.526;2023-03-23T16:28:25;5.32;;;1.83;;
40537;SDS011;27925;41.874;12.526;2023-03-23T16:30:51;4.22;;;1.83;;
40537;SDS011;27925;41.874;12.526;2023-03-23T16:33:16;6.82;;;1.50;;
40537;SDS011;27925;41.874;12.526;2023-03-23T16:35:42;4.22;;;1.70;;
40537;SDS011;27925;41.874;12.526;2023-03-23T16:38:12;5.75;;;1.70;;
40537;SDS011;27925;41.874;12.526;2023-03-23T16:40:40;7.60;;;1.77;;
40537;SDS011;27925;41.874;12.526;2023-03-23T16:43:07;4.28;;;1.67;;
40537;SDS011;27925;41.874;12.526;2023-03-23T16:45:33;3.72;;;1.58;;
40537;SDS011;27925;41.874;12.526;2023-03-23T16:47:59;3.78;;;1.80;;
40537;SDS011;27925;41.874;12.526;2023-03-23T16:50:26;5.70;;;2.03;;
40537;SDS011;27925;41.874;12.526;2023-03-23T16:52:53;3.92;;;1.70;;
40537;SDS011;27925;41.874;12.526;2023-03-23T16:55:19;7.93;;;1.83;;
40537;SDS011;27925;41.874;12.526;2023-03-23T16:57:45;4.82;;;1.67;;
40537;SDS011;27925;41.874;12.526;2023-03-23T17:00:15;6.85;;;1.95;;
40537;SDS011;27925;41.874;12.526;2023-03-23T17:02:49;4.72;;;1.83;;
40537;SDS011;27925;41.874;12.526;2023-03-23T17:05:17;4.85;;;2.17;;
40537;SDS011;27925;41.874;12.526;2023-03-23T17:07:44;5.40;;;1.98;;
40537;SDS011;27925;41.874;12.526;2023-03-23T17:10:11;7.72;;;2.30;;
40537;SDS011;27925;41.874;12.526;2023-03-23T17:12:38;10.35;;;2.70;;
40537;SDS011;27925;41.874;12.526;2023-03-23T17:15:05;6.68;;;2.15;;
40537;SDS011;27925;41.874;12.526;2023-03-23T17:17:32;7.57;;;2.05;;
40537;SDS011;27925;41.874;12.526;2023-03-23T17:19:58;6.50;;;2.30;;
40537;SDS011;27925;41.874;12.526;2023-03-23T17:22:24;4.60;;;1.90;;
40537;SDS011;27925;41.874;12.526;2023-03-23T17:24:50;3.67;;;1.85;;
40537;SDS011;27925;41.874;12.526;2023-03-23T17:27:17;6.50;;;3.05;;
40537;SDS011;27925;41.874;12.526;2023-03-23T17:29:44;9.93;;;4.45;;
40537;SDS011;27925;41.874;12.526;2023-03-23T17:32:10;8.88;;;4.72;;
40537;SDS011;27925;41.874;12.526;2023-03-23T17:34:36;8.73;;;2.65;;
40537;SDS011;27925;41.874;12.526;2023-03-23T17:37:02;8.25;;;2.65;;
40537;SDS011;27925;41.874;12.526;2023-03-23T17:39:29;8.63;;;2.25;;
40537;SDS011;27925;41.874;12.526;2023-03-23T17:41:56;6.28;;;2.50;;
40537;SDS011;27925;41.874;12.526;2023-03-23T17:44:22;7.47;;;2.92;;
40537;SDS011;27925;41.874;12.526;2023-03-23T17:46:48;7.53;;;2.75;;
40537;SDS011;27925;41.874;12.526;2023-03-23T17:49:14;6.43;;;2.40;;
40537;SDS011;27925;41.874;12.526;2023-03-23T17:51:40;6.78;;;2.55;;
40537;SDS011;27925;41.874;12.526;2023-03-23T17:54:06;6.65;;;2.78;;
40537;SDS011;27925;41.874;12.526;2023-03-23T17:56:32;7.15;;;3.03;;
40537;SDS011;27925;41.874;12.526;2023-03-23T17:58:57;9.55;;;2.83;;
40537;SDS011;27925;41.874;12.526;2023-03-23T18:01:23;13.30;;;3.60;;
40537;SDS011;27925;41.874;12.526;2023-03-23T18:03:49;7.75;;;2.90;;
40537;SDS011;27925;41.874;12.526;2023-03-23T18:06:15;6.60;;;2.70;;
40537;SDS011;27925;41.874;12.526;2023-03-23T18:08:40;9.57;;;4.75;;
40537;SDS011;27925;41.874;12.526;2023-03-23T18:11:06;7.85;;;3.38;;
40537;SDS011;27925;41.874;12.526;2023-03-23T18:13:33;9.35;;;3.45;;
40537;SDS011;27925;41.874;12.526;2023-03-23T18:16:00;8.05;;;3.00;;
40537;SDS011;27925;41.874;12.526;2023-03-23T18:18:27;8.65;;;3.20;;
40537;SDS011;27925;41.874;12.526;2023-03-23T18:20:58;8.40;;;3.53;;
40537;SDS011;27925;41.874;12.526;2023-03-23T18:23:26;7.95;;;2.97;;
40537;SDS011;27925;41.874;12.526;2023-03-23T18:25:52;10.10;;;3.30;;
40537;SDS011;27925;41.874;12.526;2023-03-23T18:28:18;7.00;;;3.33;;
40537;SDS011;27925;41.874;12.526;2023-03-23T18:30:45;9.38;;;3.88;;
